createdAt,value
2017-06-12T00:00:34.968Z,0
2017-06-12T00:01:42.976Z,0
2017-06-12T00:02:51.140Z,0
2017-06-12T00:03:59.198Z,0
2017-06-12T00:05:07.305Z,0
2017-06-12T00:06:15.390Z,0
2017-06-12T00:07:23.489Z,0
2017-06-12T00:08:31.552Z,0
2017-06-12T00:09:39.683Z,0
2017-06-12T00:10:47.741Z,0
2017-06-12T00:11:55.824Z,0
2017-06-12T00:13:03.947Z,0
2017-06-12T00:14:12.025Z,0
2017-06-12T00:15:20.101Z,0
2017-06-12T00:16:28.212Z,0
2017-06-12T00:17:36.274Z,0
2017-06-12T00:18:44.339Z,0
2017-06-12T00:19:52.439Z,0
2017-06-12T00:21:00.541Z,0
2017-06-12T00:22:08.624Z,0
2017-06-12T00:23:16.725Z,0
2017-06-12T00:24:24.799Z,0
2017-06-12T00:25:32.863Z,0
2017-06-12T00:26:40.981Z,0
2017-06-12T00:27:49.068Z,0
2017-06-12T00:28:57.130Z,0
2017-06-12T00:30:05.258Z,0
2017-06-12T00:31:13.349Z,0
2017-06-12T00:32:21.410Z,0
2017-06-12T00:33:29.438Z,0
2017-06-12T00:34:37.510Z,0
2017-06-12T00:35:45.595Z,0
2017-06-12T00:36:53.684Z,0
2017-06-12T00:38:01.773Z,0
2017-06-12T00:39:09.859Z,0
2017-06-12T00:40:17.950Z,0
2017-06-12T00:41:26.038Z,0
2017-06-12T00:42:34.125Z,0
2017-06-12T00:43:42.212Z,0
2017-06-12T00:44:50.299Z,0
2017-06-12T00:45:58.396Z,0
2017-06-12T00:47:06.482Z,0
2017-06-12T00:48:14.563Z,0
2017-06-12T00:49:22.657Z,0
2017-06-12T00:50:30.744Z,0
2017-06-12T00:51:38.832Z,0
2017-06-12T00:52:46.917Z,0
2017-06-12T00:53:55.006Z,0
2017-06-12T00:55:03.096Z,0
2017-06-12T00:56:11.183Z,0
2017-06-12T00:57:19.270Z,0
2017-06-12T00:58:27.361Z,0
2017-06-12T00:59:35.471Z,0
2017-06-12T01:00:43.537Z,0
2017-06-12T01:01:51.620Z,0
2017-06-12T01:02:59.707Z,0
2017-06-12T01:04:07.956Z,0
2017-06-12T01:05:15.884Z,0
2017-06-12T01:06:23.971Z,0
2017-06-12T01:07:32.061Z,0
2017-06-12T01:08:40.148Z,0
2017-06-12T01:09:48.243Z,0
2017-06-12T01:10:56.328Z,0
2017-06-12T01:12:04.410Z,0
2017-06-12T01:13:12.495Z,0
2017-06-12T01:14:20.584Z,0
2017-06-12T01:15:28.671Z,0
2017-06-12T01:16:36.759Z,0
2017-06-12T01:17:44.847Z,0
2017-06-12T01:18:52.935Z,0
2017-06-12T01:20:01.395Z,0
2017-06-12T01:21:09.110Z,0
2017-06-12T01:22:17.196Z,0
2017-06-12T01:23:25.285Z,0
2017-06-12T01:24:33.382Z,0
2017-06-12T01:25:41.463Z,0
2017-06-12T01:26:49.549Z,0
2017-06-12T01:27:57.634Z,0
2017-06-12T01:29:05.726Z,0
2017-06-12T01:30:13.811Z,0
2017-06-12T01:31:21.898Z,0
2017-06-12T01:32:29.992Z,0
2017-06-12T01:33:38.080Z,0
2017-06-12T01:34:46.166Z,0
2017-06-12T01:35:54.255Z,0
2017-06-12T01:37:02.341Z,0
2017-06-12T01:38:10.429Z,0
2017-06-12T01:39:18.515Z,0
2017-06-12T01:40:26.603Z,0
2017-06-12T01:41:34.695Z,0
2017-06-12T01:42:42.782Z,0
2017-06-12T01:43:50.871Z,0
2017-06-12T01:44:58.957Z,0
2017-06-12T01:46:07.046Z,0
2017-06-12T01:47:15.140Z,0
2017-06-12T01:48:23.226Z,0
2017-06-12T01:49:31.314Z,0
2017-06-12T01:50:39.403Z,0
2017-06-12T01:51:47.488Z,0
2017-06-12T01:52:55.575Z,0
2017-06-12T01:54:03.663Z,0
2017-06-12T01:55:11.777Z,0
2017-06-12T01:56:19.838Z,0
2017-06-12T01:57:27.924Z,0
2017-06-12T01:58:36.013Z,0
2017-06-12T01:59:44.105Z,0
2017-06-12T02:00:52.187Z,0
2017-06-12T02:02:00.275Z,0
2017-06-12T02:03:08.363Z,0
2017-06-12T02:04:16.477Z,0
2017-06-12T02:05:24.541Z,0
2017-06-12T02:06:32.624Z,0
2017-06-12T02:07:40.712Z,0
2017-06-12T02:08:48.801Z,0
2017-06-12T02:09:56.888Z,0
2017-06-12T02:11:04.980Z,0
2017-06-12T02:12:13.063Z,0
2017-06-12T02:13:21.152Z,0
2017-06-12T02:14:29.262Z,0
2017-06-12T02:15:37.325Z,0
2017-06-12T02:16:45.414Z,0
2017-06-12T02:17:53.503Z,0
2017-06-12T02:19:01.588Z,0
2017-06-12T02:20:09.676Z,0
2017-06-12T02:21:17.763Z,0
2017-06-12T02:22:25.849Z,0
2017-06-12T02:23:33.937Z,0
2017-06-12T02:24:42.024Z,0
2017-06-12T02:25:50.111Z,0
2017-06-12T02:26:58.206Z,0
2017-06-12T02:28:06.297Z,0
2017-06-12T02:29:14.381Z,0
2017-06-12T02:30:22.493Z,0
2017-06-12T02:31:30.559Z,0
2017-06-12T02:32:38.643Z,0
2017-06-12T02:33:46.730Z,0
2017-06-12T02:34:54.818Z,0
2017-06-12T02:36:02.905Z,0
2017-06-12T02:37:10.991Z,0
2017-06-12T02:38:19.084Z,0
2017-06-12T02:39:27.172Z,0
2017-06-12T02:40:35.263Z,0
2017-06-12T02:41:43.349Z,0
2017-06-12T02:42:51.438Z,0
2017-06-12T02:43:59.520Z,0
2017-06-12T02:45:07.616Z,0
2017-06-12T02:46:15.695Z,0
2017-06-12T02:47:23.783Z,0
2017-06-12T02:48:31.869Z,0
2017-06-12T02:49:39.960Z,0
2017-06-12T02:50:48.046Z,0
2017-06-12T02:51:56.134Z,0
2017-06-12T02:53:04.218Z,0
2017-06-12T02:54:12.308Z,0
2017-06-12T02:55:20.405Z,0
2017-06-12T02:56:28.483Z,0
2017-06-12T02:57:36.569Z,0
2017-06-12T02:58:44.656Z,0
2017-06-12T02:59:52.747Z,0
2017-06-12T03:01:00.831Z,0
2017-06-12T03:02:08.916Z,0
2017-06-12T03:03:17.005Z,0
2017-06-12T03:04:25.091Z,0
2017-06-12T03:05:33.203Z,0
2017-06-12T03:06:41.265Z,0
2017-06-12T03:07:49.352Z,0
2017-06-12T03:08:57.441Z,0
2017-06-12T03:10:05.528Z,0
2017-06-12T03:11:13.617Z,0
2017-06-12T03:12:21.704Z,0
2017-06-12T03:13:29.787Z,0
2017-06-12T03:14:37.876Z,0
2017-06-12T03:15:45.964Z,0
2017-06-12T03:16:54.050Z,0
2017-06-12T03:18:02.137Z,0
2017-06-12T03:19:10.227Z,0
2017-06-12T03:20:18.311Z,0
2017-06-12T03:21:26.400Z,0
2017-06-12T03:22:34.500Z,0
2017-06-12T03:23:42.573Z,0
2017-06-12T03:24:50.661Z,0
2017-06-12T03:25:58.748Z,0
2017-06-12T03:27:06.835Z,0
2017-06-12T03:28:14.921Z,0
2017-06-12T03:29:23.013Z,0
2017-06-12T03:30:31.096Z,0
2017-06-12T03:31:39.187Z,0
2017-06-12T03:32:47.276Z,0
2017-06-12T03:33:55.372Z,0
2017-06-12T03:35:03.451Z,0
2017-06-12T03:36:11.537Z,4
2017-06-12T03:37:19.625Z,4
2017-06-12T03:38:27.711Z,0
2017-06-12T03:39:35.807Z,0
2017-06-12T03:40:43.895Z,0
2017-06-12T03:41:51.975Z,0
2017-06-12T03:43:00.065Z,0
2017-06-12T03:44:08.148Z,0
2017-06-12T03:45:16.235Z,0
2017-06-12T03:46:24.324Z,4
2017-06-12T03:47:32.411Z,0
2017-06-12T03:48:40.498Z,0
2017-06-12T03:49:48.586Z,0
2017-06-12T03:50:56.670Z,0
2017-06-12T03:52:04.758Z,4
2017-06-12T03:53:12.845Z,4
2017-06-12T03:54:20.931Z,4
2017-06-12T03:55:29.019Z,4
2017-06-12T03:56:37.132Z,4
2017-06-12T03:57:45.194Z,4
2017-06-12T03:58:53.283Z,4
2017-06-12T04:00:01.365Z,4
2017-06-12T04:01:09.455Z,4
2017-06-12T04:02:17.541Z,4
2017-06-12T04:03:25.626Z,0
2017-06-12T04:04:34.164Z,0
2017-06-12T04:05:41.842Z,4
2017-06-12T04:06:49.888Z,0
2017-06-12T04:07:58.352Z,0
2017-06-12T04:09:06.064Z,4
2017-06-12T04:10:14.150Z,0
2017-06-12T04:11:22.247Z,4
2017-06-12T04:12:30.325Z,4
2017-06-12T04:13:38.410Z,4
2017-06-12T04:14:46.496Z,4
2017-06-12T04:15:54.597Z,0
2017-06-12T04:17:02.670Z,0
2017-06-12T04:18:10.768Z,0
2017-06-12T04:19:18.845Z,4
2017-06-12T04:20:26.933Z,4
2017-06-12T04:21:35.154Z,4
2017-06-12T04:22:43.107Z,4
2017-06-12T04:23:51.192Z,0
2017-06-12T04:24:59.287Z,4
2017-06-12T04:26:07.700Z,4
2017-06-12T04:27:15.454Z,4
2017-06-12T04:28:23.542Z,4
2017-06-12T04:29:31.632Z,4
2017-06-12T04:30:40.037Z,4
2017-06-12T04:31:47.801Z,4
2017-06-12T04:32:55.888Z,4
2017-06-12T04:34:03.975Z,4
2017-06-12T04:35:12.062Z,4
2017-06-12T04:36:20.158Z,4
2017-06-12T04:37:28.292Z,4
2017-06-12T04:38:36.335Z,4
2017-06-12T04:39:44.421Z,0
2017-06-12T04:40:52.499Z,4
2017-06-12T04:42:00.866Z,0
2017-06-12T04:43:08.668Z,4
2017-06-12T04:44:16.758Z,4
2017-06-12T04:45:24.846Z,4
2017-06-12T04:46:32.932Z,4
2017-06-12T04:47:41.019Z,8
2017-06-12T04:48:49.119Z,8
2017-06-12T04:49:57.199Z,8
2017-06-12T04:51:05.294Z,4
2017-06-12T04:52:13.372Z,8
2017-06-12T04:53:21.465Z,8
2017-06-12T04:54:29.603Z,12
2017-06-12T04:55:37.634Z,8
2017-06-12T04:56:45.721Z,8
2017-06-12T04:57:53.812Z,12
2017-06-12T04:59:01.894Z,12
2017-06-12T05:00:09.979Z,12
2017-06-12T05:01:18.065Z,8
2017-06-12T05:02:27.575Z,12
2017-06-12T05:03:36.083Z,12
2017-06-12T05:04:42.961Z,8
2017-06-12T05:05:52.179Z,8
2017-06-12T05:07:00.187Z,8
2017-06-12T05:08:08.278Z,8
2017-06-12T05:09:16.029Z,8
2017-06-12T05:10:22.854Z,4
2017-06-12T05:11:31.499Z,4
2017-06-12T05:12:38.938Z,4
2017-06-12T05:13:47.022Z,4
2017-06-12T05:14:56.683Z,8
2017-06-12T05:16:05.034Z,4
2017-06-12T05:17:12.867Z,4
2017-06-12T05:18:20.068Z,4
2017-06-12T05:19:29.038Z,8
2017-06-12T05:20:36.003Z,4
2017-06-12T05:21:43.639Z,4
2017-06-12T05:22:51.729Z,4
2017-06-12T05:24:00.565Z,4
2017-06-12T05:25:07.950Z,4
2017-06-12T05:26:15.992Z,4
2017-06-12T05:27:25.894Z,4
2017-06-12T05:28:33.739Z,4
2017-06-12T05:29:41.908Z,4
2017-06-12T05:30:49.948Z,4
2017-06-12T05:31:57.876Z,4
2017-06-12T05:33:04.519Z,4
2017-06-12T05:34:12.606Z,4
2017-06-12T05:35:20.701Z,4
2017-06-12T05:36:28.782Z,4
2017-06-12T05:37:36.869Z,4
2017-06-12T05:38:44.957Z,0
2017-06-12T05:39:53.043Z,0
2017-06-12T05:41:01.133Z,4
2017-06-12T05:42:09.221Z,0
2017-06-12T05:43:17.307Z,0
2017-06-12T05:44:25.411Z,4
2017-06-12T05:45:33.490Z,0
2017-06-12T05:46:41.574Z,4
2017-06-12T05:47:49.661Z,4
2017-06-12T05:48:57.750Z,4
2017-06-12T05:50:05.839Z,4
2017-06-12T05:51:13.924Z,4
2017-06-12T05:52:22.012Z,4
2017-06-12T05:53:30.099Z,4
2017-06-12T05:54:38.188Z,4
2017-06-12T05:55:46.275Z,4
2017-06-12T05:56:54.361Z,4
2017-06-12T05:58:02.459Z,8
2017-06-12T05:59:10.536Z,4
2017-06-12T06:00:18.625Z,4
2017-06-12T06:01:26.708Z,4
2017-06-12T06:02:34.795Z,4
2017-06-12T06:03:42.890Z,4
2017-06-12T06:04:50.971Z,4
2017-06-12T06:05:59.059Z,4
2017-06-12T06:07:07.145Z,8
2017-06-12T06:08:15.265Z,8
2017-06-12T06:09:23.328Z,8
2017-06-12T06:10:31.439Z,4
2017-06-12T06:11:39.502Z,4
2017-06-12T06:12:47.589Z,4
2017-06-12T06:13:55.674Z,8
2017-06-12T06:15:03.763Z,4
2017-06-12T06:16:11.850Z,4
2017-06-12T06:17:19.937Z,4
2017-06-12T06:18:28.538Z,4
2017-06-12T06:19:36.119Z,4
2017-06-12T06:20:44.199Z,4
2017-06-12T06:21:52.292Z,4
2017-06-12T06:23:00.371Z,4
2017-06-12T06:24:08.460Z,4
2017-06-12T06:25:16.546Z,8
2017-06-12T06:26:24.633Z,4
2017-06-12T06:27:32.720Z,8
2017-06-12T06:28:40.814Z,8
2017-06-12T06:29:48.894Z,4
2017-06-12T06:30:56.981Z,4
2017-06-12T06:32:05.068Z,4
2017-06-12T06:33:13.157Z,8
2017-06-12T06:34:21.252Z,8
2017-06-12T06:35:29.334Z,4
2017-06-12T06:36:37.430Z,4
2017-06-12T06:37:45.506Z,4
2017-06-12T06:38:53.879Z,4
2017-06-12T06:40:02.389Z,4
2017-06-12T06:41:09.769Z,4
2017-06-12T06:42:17.946Z,4
2017-06-12T06:43:25.991Z,8
2017-06-12T06:44:34.040Z,4
2017-06-12T06:45:42.128Z,8
2017-06-12T06:46:50.221Z,8
2017-06-12T06:47:58.371Z,8
2017-06-12T06:49:06.395Z,8
2017-06-12T06:50:14.483Z,8
2017-06-12T06:51:22.570Z,8
2017-06-12T06:52:30.658Z,8
2017-06-12T06:53:38.744Z,8
2017-06-12T06:54:46.832Z,8
2017-06-12T06:55:54.925Z,8
2017-06-12T06:57:03.033Z,8
2017-06-12T06:58:11.101Z,12
2017-06-12T06:59:19.189Z,8
2017-06-12T07:00:27.291Z,12
2017-06-12T07:01:35.364Z,12
2017-06-12T07:02:43.451Z,16
2017-06-12T07:03:51.537Z,16
2017-06-12T07:04:59.623Z,16
2017-06-12T07:06:07.720Z,16
2017-06-12T07:07:15.802Z,16
2017-06-12T07:08:23.887Z,16
2017-06-12T07:09:31.977Z,20
2017-06-12T07:10:40.071Z,16
2017-06-12T07:11:48.157Z,16
2017-06-12T07:12:56.247Z,20
2017-06-12T07:14:04.333Z,16
2017-06-12T07:15:12.427Z,20
2017-06-12T07:16:20.506Z,20
2017-06-12T07:17:28.594Z,16
2017-06-12T07:18:36.731Z,16
2017-06-12T07:19:44.770Z,16
2017-06-12T07:20:52.870Z,20
2017-06-12T07:22:00.945Z,12
2017-06-12T07:23:09.386Z,16
2017-06-12T07:24:17.118Z,16
2017-06-12T07:25:25.227Z,12
2017-06-12T07:26:33.296Z,16
2017-06-12T07:27:41.379Z,16
2017-06-12T07:28:49.469Z,16
2017-06-12T07:29:57.554Z,12
2017-06-12T07:31:05.642Z,12
2017-06-12T07:32:13.727Z,8
2017-06-12T07:33:21.815Z,12
2017-06-12T07:34:29.903Z,8
2017-06-12T07:35:37.991Z,8
2017-06-12T07:36:46.076Z,8
2017-06-12T07:37:54.168Z,16
2017-06-12T07:39:02.251Z,12
2017-06-12T07:40:10.344Z,20
2017-06-12T07:41:18.430Z,16
2017-06-12T07:42:26.518Z,16
2017-06-12T07:43:34.606Z,48
2017-06-12T07:44:42.695Z,36
2017-06-12T07:45:50.782Z,48
2017-06-12T07:46:58.875Z,24
2017-06-12T07:48:06.968Z,44
2017-06-12T07:49:15.050Z,48
2017-06-12T07:50:23.139Z,52
2017-06-12T07:51:31.225Z,48
2017-06-12T07:52:39.311Z,44
2017-06-12T07:53:47.401Z,48
2017-06-12T07:54:55.487Z,48
2017-06-12T07:56:03.632Z,52
2017-06-12T07:57:11.664Z,48
2017-06-12T07:58:19.748Z,48
2017-06-12T07:59:27.838Z,48
2017-06-12T08:00:35.923Z,48
2017-06-12T08:01:44.011Z,48
2017-06-12T08:02:52.098Z,28
2017-06-12T08:04:00.185Z,48
2017-06-12T08:05:08.276Z,48
2017-06-12T08:06:16.371Z,40
2017-06-12T08:07:24.450Z,48
2017-06-12T08:08:32.538Z,48
2017-06-12T08:09:40.624Z,44
2017-06-12T08:10:48.712Z,48
2017-06-12T08:11:56.799Z,44
2017-06-12T08:13:04.886Z,48
2017-06-12T08:14:12.983Z,44
2017-06-12T08:15:21.071Z,44
2017-06-12T08:16:29.365Z,44
2017-06-12T08:17:37.248Z,44
2017-06-12T08:18:45.334Z,44
2017-06-12T08:19:53.421Z,48
2017-06-12T08:21:01.509Z,48
2017-06-12T08:22:09.607Z,44
2017-06-12T08:23:17.685Z,44
2017-06-12T08:24:25.775Z,44
2017-06-12T08:25:33.863Z,44
2017-06-12T08:26:41.951Z,44
2017-06-12T08:27:50.039Z,48
2017-06-12T08:28:58.150Z,44
2017-06-12T08:30:06.222Z,44
2017-06-12T08:31:14.304Z,44
2017-06-12T08:32:22.395Z,48
2017-06-12T08:33:30.481Z,44
2017-06-12T08:34:38.570Z,44
2017-06-12T08:35:46.655Z,44
2017-06-12T08:36:54.792Z,44
2017-06-12T08:38:02.838Z,44
2017-06-12T08:39:10.924Z,44
2017-06-12T08:40:19.014Z,44
2017-06-12T08:41:27.103Z,40
2017-06-12T08:42:35.192Z,44
2017-06-12T08:43:43.305Z,40
2017-06-12T08:44:51.376Z,40
2017-06-12T08:45:59.480Z,40
2017-06-12T08:47:07.544Z,40
2017-06-12T08:48:15.633Z,40
2017-06-12T08:49:23.718Z,40
2017-06-12T08:50:31.807Z,40
2017-06-12T08:51:39.896Z,40
2017-06-12T08:52:47.989Z,40
2017-06-12T08:53:56.074Z,36
2017-06-12T08:55:04.162Z,40
2017-06-12T08:56:12.307Z,44
2017-06-12T08:57:20.347Z,44
2017-06-12T08:58:28.424Z,40
2017-06-12T08:59:36.514Z,40
2017-06-12T09:00:44.626Z,44
2017-06-12T09:01:52.692Z,44
2017-06-12T09:03:00.782Z,40
2017-06-12T09:04:08.871Z,44
2017-06-12T09:05:17.512Z,44
2017-06-12T09:06:25.414Z,44
2017-06-12T09:07:33.136Z,44
2017-06-12T09:08:41.247Z,52
2017-06-12T09:09:49.321Z,48
2017-06-12T09:10:57.410Z,48
2017-06-12T09:12:05.495Z,48
2017-06-12T09:13:13.584Z,52
2017-06-12T09:14:21.674Z,32
2017-06-12T09:15:29.761Z,44
2017-06-12T09:16:37.850Z,40
2017-06-12T09:17:45.936Z,20
2017-06-12T09:18:54.026Z,40
2017-06-12T09:20:02.116Z,32
2017-06-12T09:21:10.204Z,36
2017-06-12T09:22:18.291Z,36
2017-06-12T09:23:26.381Z,36
2017-06-12T09:24:34.468Z,24
2017-06-12T09:25:42.556Z,24
2017-06-12T09:26:50.645Z,24
2017-06-12T09:27:58.733Z,24
2017-06-12T09:29:06.821Z,20
2017-06-12T09:30:14.911Z,16
2017-06-12T09:31:23.000Z,12
2017-06-12T09:32:31.102Z,8
2017-06-12T09:33:39.178Z,12
2017-06-12T09:34:47.267Z,12
2017-06-12T09:35:55.353Z,44
2017-06-12T09:37:03.442Z,32
2017-06-12T09:38:11.529Z,24
2017-06-12T09:39:19.621Z,24
2017-06-12T09:40:27.707Z,24
2017-06-12T09:41:35.802Z,24
2017-06-12T09:42:43.886Z,28
2017-06-12T09:43:51.984Z,24
2017-06-12T09:45:00.064Z,24
2017-06-12T09:46:08.151Z,28
2017-06-12T09:47:16.239Z,24
2017-06-12T09:48:24.355Z,20
2017-06-12T09:49:32.447Z,16
2017-06-12T09:50:40.514Z,16
2017-06-12T09:51:48.600Z,16
2017-06-12T09:52:56.689Z,20
2017-06-12T09:54:04.781Z,28
2017-06-12T09:55:12.866Z,28
2017-06-12T09:56:20.955Z,20
2017-06-12T09:57:29.044Z,20
2017-06-12T09:58:37.133Z,16
2017-06-12T09:59:45.219Z,16
2017-06-12T10:00:53.334Z,20
2017-06-12T10:02:01.407Z,20
2017-06-12T10:03:09.486Z,28
2017-06-12T10:04:17.576Z,24
2017-06-12T10:05:25.662Z,32
2017-06-12T10:06:33.751Z,32
2017-06-12T10:07:42.026Z,40
2017-06-12T10:08:49.928Z,32
2017-06-12T10:09:58.090Z,44
2017-06-12T10:11:06.279Z,24
2017-06-12T10:12:14.196Z,48
2017-06-12T10:13:22.292Z,48
2017-06-12T10:14:30.373Z,24
2017-06-12T10:15:38.998Z,24
2017-06-12T10:16:46.555Z,20
2017-06-12T10:17:54.645Z,16
2017-06-12T10:19:02.730Z,24
2017-06-12T10:20:10.820Z,44
2017-06-12T10:21:19.195Z,28
2017-06-12T10:22:26.996Z,8
2017-06-12T10:23:35.084Z,4
2017-06-12T10:24:43.175Z,12
2017-06-12T10:25:51.326Z,12
2017-06-12T10:26:59.359Z,20
2017-06-12T10:28:07.446Z,24
2017-06-12T10:29:15.535Z,24
2017-06-12T10:30:23.650Z,24
2017-06-12T10:31:31.712Z,28
2017-06-12T10:32:39.800Z,56
2017-06-12T10:33:47.889Z,32
2017-06-12T10:34:55.976Z,32
2017-06-12T10:36:04.064Z,28
2017-06-12T10:37:12.153Z,40
2017-06-12T10:38:20.245Z,40
2017-06-12T10:39:28.391Z,32
2017-06-12T10:40:36.422Z,32
2017-06-12T10:41:44.510Z,28
2017-06-12T10:42:52.620Z,20
2017-06-12T10:44:00.689Z,24
2017-06-12T10:45:08.777Z,20
2017-06-12T10:46:17.489Z,20
2017-06-12T10:47:24.954Z,12
2017-06-12T10:48:33.042Z,12
2017-06-12T10:49:41.187Z,16
2017-06-12T10:50:49.219Z,20
2017-06-12T10:51:57.354Z,24
2017-06-12T10:53:05.397Z,20
2017-06-12T10:54:13.550Z,24
2017-06-12T10:55:21.574Z,24
2017-06-12T10:56:29.668Z,24
2017-06-12T10:57:37.755Z,24
2017-06-12T10:58:45.841Z,28
2017-06-12T10:59:53.928Z,28
2017-06-12T11:01:02.016Z,28
2017-06-12T11:02:10.114Z,32
2017-06-12T11:03:18.193Z,36
2017-06-12T11:04:26.281Z,28
2017-06-12T11:05:34.369Z,28
2017-06-12T11:06:42.506Z,28
2017-06-12T11:07:50.547Z,28
2017-06-12T11:08:58.645Z,24
2017-06-12T11:10:06.725Z,20
2017-06-12T11:11:14.836Z,28
2017-06-12T11:12:22.900Z,28
2017-06-12T11:13:30.990Z,32
2017-06-12T11:14:39.107Z,32
2017-06-12T11:15:48.514Z,48
2017-06-12T11:16:55.259Z,40
2017-06-12T11:18:03.350Z,20
2017-06-12T11:19:11.439Z,40
2017-06-12T11:20:19.527Z,44
2017-06-12T11:21:27.661Z,44
2017-06-12T11:22:35.799Z,24
2017-06-12T11:23:43.973Z,44
2017-06-12T11:24:51.885Z,16
2017-06-12T11:25:59.973Z,16
2017-06-12T11:27:08.061Z,16
2017-06-12T11:28:16.152Z,20
2017-06-12T11:29:24.241Z,20
2017-06-12T11:30:32.336Z,16
2017-06-12T11:31:40.420Z,24
2017-06-12T11:32:48.504Z,20
2017-06-12T11:33:56.603Z,20
2017-06-12T11:35:04.689Z,20
2017-06-12T11:36:12.903Z,20
2017-06-12T11:37:20.867Z,28
2017-06-12T11:38:28.967Z,28
2017-06-12T11:39:37.097Z,40
2017-06-12T11:40:45.133Z,52
2017-06-12T11:41:53.226Z,44
2017-06-12T11:43:01.313Z,48
2017-06-12T11:44:09.473Z,28
2017-06-12T11:45:17.491Z,40
2017-06-12T11:46:25.579Z,28
2017-06-12T11:47:33.668Z,48
2017-06-12T11:48:41.757Z,40
2017-06-12T11:49:49.844Z,44
2017-06-12T11:50:57.934Z,52
2017-06-12T11:52:06.033Z,28
2017-06-12T11:53:14.112Z,28
2017-06-12T11:54:22.202Z,32
2017-06-12T11:55:30.292Z,48
2017-06-12T11:56:38.402Z,32
2017-06-12T11:57:46.470Z,28
2017-06-12T11:58:54.555Z,24
2017-06-12T12:00:02.646Z,24
2017-06-12T12:01:10.737Z,36
2017-06-12T12:02:18.825Z,48
2017-06-12T12:03:26.912Z,32
2017-06-12T12:04:35.002Z,36
2017-06-12T12:05:43.091Z,24
2017-06-12T12:06:51.185Z,24
2017-06-12T12:07:59.268Z,24
2017-06-12T12:09:07.359Z,24
2017-06-12T12:10:15.445Z,44
2017-06-12T12:11:23.537Z,24
2017-06-12T12:12:31.651Z,44
2017-06-12T12:13:39.802Z,36
2017-06-12T12:14:47.804Z,48
2017-06-12T12:15:55.903Z,36
2017-06-12T12:17:03.989Z,40
2017-06-12T12:18:12.081Z,28
2017-06-12T12:19:20.168Z,32
2017-06-12T12:20:28.263Z,48
2017-06-12T12:21:36.348Z,48
2017-06-12T12:22:44.446Z,48
2017-06-12T12:23:52.532Z,48
2017-06-12T12:25:00.619Z,36
2017-06-12T12:26:08.711Z,36
2017-06-12T12:27:17.471Z,40
2017-06-12T12:28:24.922Z,44
2017-06-12T12:29:32.977Z,40
2017-06-12T12:30:41.069Z,40
2017-06-12T12:31:49.155Z,32
2017-06-12T12:32:57.250Z,40
2017-06-12T12:34:05.332Z,48
2017-06-12T12:35:13.421Z,32
2017-06-12T12:36:21.517Z,40
2017-06-12T12:37:29.603Z,40
2017-06-12T12:38:37.690Z,36
2017-06-12T12:39:45.781Z,28
2017-06-12T12:40:53.959Z,28
2017-06-12T12:42:01.969Z,32
2017-06-12T12:43:10.129Z,36
2017-06-12T12:44:18.225Z,32
2017-06-12T12:45:26.226Z,32
2017-06-12T12:46:34.322Z,36
2017-06-12T12:47:42.479Z,40
2017-06-12T12:48:50.492Z,24
2017-06-12T12:49:58.581Z,24
2017-06-12T12:51:06.721Z,24
2017-06-12T12:52:14.759Z,24
2017-06-12T12:53:22.848Z,24
2017-06-12T12:54:30.937Z,24
2017-06-12T12:55:39.028Z,36
2017-06-12T12:56:47.118Z,32
2017-06-12T12:57:55.204Z,36
2017-06-12T12:59:03.318Z,36
2017-06-12T13:00:11.382Z,24
2017-06-12T13:01:19.498Z,40
2017-06-12T13:02:27.561Z,24
2017-06-12T13:03:35.649Z,24
2017-06-12T13:04:43.809Z,24
2017-06-12T13:05:51.826Z,36
2017-06-12T13:06:59.917Z,32
2017-06-12T13:08:08.005Z,36
2017-06-12T13:09:16.094Z,24
2017-06-12T13:10:24.184Z,32
2017-06-12T13:11:32.700Z,32
2017-06-12T13:12:40.367Z,32
2017-06-12T13:13:48.460Z,28
2017-06-12T13:14:56.540Z,12
2017-06-12T13:16:04.632Z,16
2017-06-12T13:17:12.727Z,32
2017-06-12T13:18:20.809Z,32
2017-06-12T13:19:28.898Z,20
2017-06-12T13:20:36.988Z,28
2017-06-12T13:21:45.103Z,32
2017-06-12T13:22:53.165Z,32
2017-06-12T13:24:01.310Z,28
2017-06-12T13:25:09.345Z,36
2017-06-12T13:26:17.433Z,20
2017-06-12T13:27:25.522Z,28
2017-06-12T13:28:33.626Z,28
2017-06-12T13:29:41.700Z,28
2017-06-12T13:30:49.791Z,28
2017-06-12T13:31:57.879Z,28
2017-06-12T13:33:05.967Z,28
2017-06-12T13:34:14.056Z,12
2017-06-12T13:35:22.147Z,28
2017-06-12T13:36:30.237Z,24
2017-06-12T13:37:38.327Z,28
2017-06-12T13:38:46.458Z,28
2017-06-12T13:39:54.506Z,28
2017-06-12T13:41:02.593Z,28
2017-06-12T13:42:10.682Z,28
2017-06-12T13:43:18.770Z,28
2017-06-12T13:44:26.859Z,16
2017-06-12T13:45:34.949Z,32
2017-06-12T13:46:43.040Z,16
2017-06-12T13:47:51.135Z,28
2017-06-12T13:48:59.226Z,24
2017-06-12T13:50:07.427Z,12
2017-06-12T13:51:15.456Z,28
2017-06-12T13:52:23.484Z,28
2017-06-12T13:53:31.575Z,28
2017-06-12T13:54:39.662Z,24
2017-06-12T13:55:47.782Z,32
2017-06-12T13:56:55.842Z,20
2017-06-12T13:58:03.933Z,16
2017-06-12T13:59:12.023Z,28
2017-06-12T14:00:20.115Z,28
2017-06-12T14:01:28.205Z,16
2017-06-12T14:02:36.302Z,12
2017-06-12T14:03:44.390Z,20
2017-06-12T14:04:52.472Z,24
2017-06-12T14:06:00.560Z,20
2017-06-12T14:07:08.648Z,24
2017-06-12T14:08:16.739Z,24
2017-06-12T14:09:24.830Z,20
2017-06-12T14:10:32.924Z,12
2017-06-12T14:11:41.013Z,20
2017-06-12T14:12:49.105Z,24
2017-06-12T14:13:57.195Z,24
2017-06-12T14:15:05.281Z,20
2017-06-12T14:16:13.372Z,20
2017-06-12T14:17:21.462Z,20
2017-06-12T14:18:29.550Z,20
2017-06-12T14:19:37.640Z,20
2017-06-12T14:20:45.726Z,20
2017-06-12T14:21:53.816Z,20
2017-06-12T14:23:01.906Z,20
2017-06-12T14:24:10.000Z,20
2017-06-12T14:25:18.083Z,12
2017-06-12T14:26:26.174Z,20
2017-06-12T14:27:34.264Z,8
2017-06-12T14:28:42.375Z,20
2017-06-12T14:29:50.438Z,20
2017-06-12T14:30:58.533Z,20
2017-06-12T14:32:06.623Z,20
2017-06-12T14:33:14.726Z,20
2017-06-12T14:34:22.804Z,16
2017-06-12T14:35:30.889Z,20
2017-06-12T14:36:38.978Z,20
2017-06-12T14:37:47.070Z,20
2017-06-12T14:38:55.160Z,20
2017-06-12T14:40:03.244Z,20
2017-06-12T14:41:11.363Z,20
2017-06-12T14:42:19.430Z,20
2017-06-12T14:43:27.514Z,20
2017-06-12T14:44:35.616Z,20
2017-06-12T14:45:43.694Z,20
2017-06-12T14:46:51.785Z,20
2017-06-12T14:47:59.874Z,20
2017-06-12T14:49:07.961Z,16
2017-06-12T14:50:16.048Z,20
2017-06-12T14:51:24.138Z,20
2017-06-12T14:52:32.228Z,20
2017-06-12T14:53:40.317Z,16
2017-06-12T14:54:48.407Z,20
2017-06-12T14:55:56.504Z,20
2017-06-12T14:57:04.587Z,16
2017-06-12T14:58:12.675Z,20
2017-06-12T14:59:20.762Z,16
2017-06-12T15:00:28.853Z,16
2017-06-12T15:01:36.945Z,20
2017-06-12T15:02:45.032Z,16
2017-06-12T15:03:53.119Z,16
2017-06-12T15:05:01.210Z,16
2017-06-12T15:06:09.302Z,16
2017-06-12T15:07:17.388Z,16
2017-06-12T15:08:25.480Z,16
2017-06-12T15:09:33.565Z,16
2017-06-12T15:10:41.666Z,12
2017-06-12T15:11:49.745Z,16
2017-06-12T15:12:57.835Z,16
2017-06-12T15:14:05.923Z,16
2017-06-12T15:15:14.013Z,16
2017-06-12T15:16:22.111Z,16
2017-06-12T15:17:30.199Z,16
2017-06-12T15:18:38.305Z,16
2017-06-12T15:19:46.390Z,16
2017-06-12T15:20:54.454Z,16
2017-06-12T15:22:02.548Z,16
2017-06-12T15:23:10.638Z,16
2017-06-12T15:24:18.730Z,16
2017-06-12T15:25:26.822Z,16
2017-06-12T15:26:34.908Z,16
2017-06-12T15:27:42.996Z,12
2017-06-12T15:28:51.087Z,16
2017-06-12T15:29:59.178Z,12
2017-06-12T15:31:07.264Z,16
2017-06-12T15:32:15.355Z,16
2017-06-12T15:33:23.450Z,16
2017-06-12T15:34:31.534Z,16
2017-06-12T15:35:39.625Z,16
2017-06-12T15:36:47.721Z,12
2017-06-12T15:37:55.809Z,16
2017-06-12T15:39:03.906Z,16
2017-06-12T15:40:11.991Z,16
2017-06-12T15:41:20.081Z,12
2017-06-12T15:42:28.169Z,12
2017-06-12T15:43:36.264Z,16
2017-06-12T15:44:44.345Z,12
2017-06-12T15:45:52.457Z,16
2017-06-12T15:47:00.523Z,16
2017-06-12T15:48:08.612Z,16
2017-06-12T15:49:16.702Z,16
2017-06-12T15:50:24.793Z,12
2017-06-12T15:51:32.882Z,12
2017-06-12T15:52:40.970Z,16
2017-06-12T15:53:49.058Z,16
2017-06-12T15:54:57.148Z,16
2017-06-12T15:56:05.261Z,12
2017-06-12T15:57:13.324Z,12
2017-06-12T15:58:21.414Z,12
2017-06-12T15:59:29.526Z,12
2017-06-12T16:00:37.594Z,16
2017-06-12T16:01:45.682Z,16
2017-06-12T16:02:53.775Z,12
2017-06-12T16:04:01.860Z,12
2017-06-12T16:05:09.953Z,12
2017-06-12T16:06:18.043Z,12
2017-06-12T16:07:26.132Z,12
2017-06-12T16:08:34.345Z,16
2017-06-12T16:09:42.309Z,16
2017-06-12T16:10:50.400Z,12
2017-06-12T16:11:58.487Z,12
2017-06-12T16:13:06.576Z,12
2017-06-12T16:14:14.667Z,12
2017-06-12T16:15:22.758Z,12
2017-06-12T16:16:30.840Z,12
2017-06-12T16:17:38.931Z,12
2017-06-12T16:18:47.020Z,12
2017-06-12T16:19:55.106Z,12
2017-06-12T16:21:03.198Z,16
2017-06-12T16:22:11.296Z,12
2017-06-12T16:23:19.385Z,12
2017-06-12T16:24:27.463Z,12
2017-06-12T16:25:35.552Z,12